createdAt,value
2017-10-20T00:01:03.613Z,7.63
2017-10-20T00:03:32.791Z,6.53
2017-10-20T00:06:02.043Z,6.47
2017-10-20T00:08:31.233Z,6.70
2017-10-20T00:11:00.442Z,5.67
2017-10-20T00:13:29.643Z,6.80
2017-10-20T00:15:58.860Z,6.90
2017-10-20T00:18:28.844Z,6.60
2017-10-20T00:20:58.061Z,6.17
2017-10-20T00:23:27.257Z,6.70
2017-10-20T00:25:56.642Z,6.63
2017-10-20T00:28:25.952Z,6.30
2017-10-20T00:30:55.147Z,6.30
2017-10-20T00:33:24.378Z,6.30
2017-10-20T00:35:54.342Z,6.33
2017-10-20T00:38:23.548Z,6.50
2017-10-20T00:40:52.783Z,6.50
2017-10-20T00:43:22.008Z,6.00
2017-10-20T00:45:51.236Z,6.10
2017-10-20T00:48:20.483Z,6.50
2017-10-20T00:50:50.478Z,5.90
2017-10-20T00:53:19.711Z,6.67
2017-10-20T00:55:49.703Z,6.37
2017-10-20T00:58:19.650Z,5.33
2017-10-20T01:00:48.835Z,5.40
2017-10-20T01:03:18.039Z,6.10
2017-10-20T01:05:47.252Z,5.50
2017-10-20T01:08:16.442Z,5.57
2017-10-20T01:10:45.665Z,6.20
2017-10-20T01:13:14.861Z,5.50
2017-10-20T01:15:44.069Z,5.97
2017-10-20T01:18:13.289Z,6.80
2017-10-20T01:20:42.480Z,5.80
2017-10-20T01:23:11.740Z,5.87
2017-10-20T01:25:40.939Z,6.40
2017-10-20T01:28:10.140Z,5.90
2017-10-20T01:30:39.344Z,5.67
2017-10-20T01:33:08.537Z,5.50
2017-10-20T01:35:37.883Z,5.83
2017-10-20T01:38:07.843Z,5.70
2017-10-20T01:40:37.057Z,6.33
2017-10-20T01:43:06.386Z,5.70
2017-10-20T01:45:35.624Z,4.87
2017-10-20T01:48:04.847Z,5.63
2017-10-20T01:50:34.044Z,5.83
2017-10-20T01:53:03.455Z,6.33
2017-10-20T01:55:32.644Z,5.33
2017-10-20T01:58:01.847Z,5.70
2017-10-20T02:00:31.049Z,5.50
2017-10-20T02:03:00.244Z,5.70
2017-10-20T02:05:29.541Z,5.67
2017-10-20T02:07:58.751Z,5.60
2017-10-20T02:10:27.956Z,5.77
2017-10-20T02:12:57.163Z,6.77
2017-10-20T02:15:26.618Z,6.37
2017-10-20T02:17:55.829Z,5.93
2017-10-20T02:20:25.016Z,5.57
2017-10-20T02:22:54.228Z,5.13
2017-10-20T02:25:23.419Z,5.67
2017-10-20T02:27:52.619Z,5.70
2017-10-20T02:30:21.808Z,5.43
2017-10-20T02:32:51.018Z,5.33
2017-10-20T02:35:20.204Z,5.13
2017-10-20T02:37:49.406Z,5.33
2017-10-20T02:40:18.609Z,5.10
2017-10-20T02:42:47.820Z,4.90
2017-10-20T02:45:17.031Z,4.50
2017-10-20T02:47:46.245Z,4.90
2017-10-20T02:50:16.215Z,5.60
2017-10-20T02:52:45.427Z,4.57
2017-10-20T02:55:14.640Z,4.60
2017-10-20T02:57:44.783Z,4.77
2017-10-20T03:00:13.998Z,5.60
2017-10-20T03:02:43.206Z,5.47
2017-10-20T03:05:12.411Z,5.70
2017-10-20T03:07:41.620Z,5.30
2017-10-20T03:10:10.862Z,5.33
2017-10-20T03:12:40.816Z,5.77
2017-10-20T03:15:10.041Z,5.87
2017-10-20T03:17:39.244Z,5.07
2017-10-20T03:20:08.579Z,5.77
2017-10-20T03:22:37.934Z,5.43
2017-10-20T03:25:07.136Z,5.00
2017-10-20T03:27:36.363Z,5.40
2017-10-20T03:30:06.416Z,5.83
2017-10-20T03:32:35.620Z,5.33
2017-10-20T03:35:04.823Z,5.77
2017-10-20T03:37:34.216Z,5.50
2017-10-20T03:40:03.419Z,6.60
2017-10-20T03:42:32.696Z,5.57
2017-10-20T03:45:01.899Z,5.40
2017-10-20T03:47:31.097Z,5.30
2017-10-20T03:50:00.304Z,5.43
2017-10-20T03:52:29.828Z,5.63
2017-10-20T03:54:59.049Z,5.27
2017-10-20T03:57:28.258Z,5.00
2017-10-20T03:59:57.539Z,5.10
2017-10-20T04:02:26.742Z,4.80
2017-10-20T04:04:55.963Z,5.57
2017-10-20T04:07:25.924Z,5.70
2017-10-20T04:09:55.120Z,5.63
2017-10-20T04:12:24.341Z,5.10
2017-10-20T04:14:53.548Z,5.47
2017-10-20T04:17:23.539Z,5.57
2017-10-20T04:19:52.727Z,5.37
2017-10-20T04:22:22.025Z,5.57
2017-10-20T04:24:51.209Z,5.83
2017-10-20T04:27:20.438Z,4.70
2017-10-20T04:29:49.639Z,6.30
2017-10-20T04:32:18.868Z,4.80
2017-10-20T04:34:48.890Z,6.00
2017-10-20T04:37:18.930Z,6.10
2017-10-20T04:39:48.876Z,5.07
2017-10-20T04:42:18.064Z,4.80
2017-10-20T04:44:47.288Z,5.00
2017-10-20T04:47:16.540Z,5.13
2017-10-20T04:49:45.735Z,5.10
2017-10-20T04:52:14.936Z,5.00
2017-10-20T04:54:44.147Z,5.60
2017-10-20T04:57:13.568Z,5.57
2017-10-20T04:59:42.774Z,4.97
2017-10-20T05:02:11.970Z,5.10
2017-10-20T05:04:41.175Z,5.70
2017-10-20T05:07:10.358Z,7.10
2017-10-20T05:09:41.112Z,8.43
2017-10-20T05:12:11.077Z,5.50
2017-10-20T05:14:40.318Z,5.10
2017-10-20T05:17:09.506Z,5.37
2017-10-20T05:19:38.700Z,5.70
2017-10-20T05:22:07.913Z,5.30
2017-10-20T05:24:37.102Z,5.27
2017-10-20T05:27:06.329Z,5.30
2017-10-20T05:29:36.288Z,4.70
2017-10-20T05:32:05.529Z,5.73
2017-10-20T05:34:35.517Z,5.73
2017-10-20T05:37:04.747Z,5.50
2017-10-20T05:39:34.705Z,6.03
2017-10-20T05:42:03.960Z,5.40
2017-10-20T05:44:33.942Z,6.23
2017-10-20T05:47:03.153Z,6.90
2017-10-20T05:49:32.627Z,7.13
2017-10-20T05:52:01.843Z,6.60
2017-10-20T05:54:31.035Z,7.77
2017-10-20T05:57:00.362Z,7.67
2017-10-20T05:59:30.381Z,7.63
2017-10-20T06:01:59.567Z,7.47
2017-10-20T06:04:28.770Z,7.60
2017-10-20T06:06:58.852Z,6.70
2017-10-20T06:09:28.238Z,7.90
2017-10-20T06:11:57.430Z,7.67
2017-10-20T06:14:26.678Z,7.67
2017-10-20T06:16:55.960Z,8.00
2017-10-20T06:19:25.170Z,7.93
2017-10-20T06:21:54.400Z,8.60
2017-10-20T06:24:23.595Z,7.67
2017-10-20T06:26:52.794Z,8.17
2017-10-20T06:29:22.043Z,8.87
2017-10-20T06:31:51.250Z,9.40
2017-10-20T06:34:20.519Z,11.53
2017-10-20T06:36:49.723Z,9.33
2017-10-20T06:39:18.939Z,10.00
2017-10-20T06:41:48.148Z,8.80
2017-10-20T06:44:17.356Z,9.37
2017-10-20T06:46:46.544Z,9.70
2017-10-20T06:49:15.916Z,9.63
2017-10-20T06:51:45.150Z,10.23
2017-10-20T06:54:14.364Z,10.13
2017-10-20T06:56:43.588Z,10.47
2017-10-20T06:59:14.223Z,8.93
2017-10-20T07:01:44.368Z,9.70
2017-10-20T07:04:13.594Z,10.10
2017-10-20T07:06:42.835Z,9.80
2017-10-20T07:09:12.044Z,9.83
2017-10-20T07:11:41.266Z,9.87
2017-10-20T07:14:10.455Z,9.87
2017-10-20T07:16:39.753Z,10.17
2017-10-20T07:19:14.279Z,10.77
2017-10-20T07:21:43.500Z,10.13
2017-10-20T07:24:12.816Z,9.33
2017-10-20T07:26:42.813Z,9.67
2017-10-20T07:29:13.535Z,10.60
2017-10-20T07:31:42.786Z,10.17
2017-10-20T07:34:11.997Z,9.73
2017-10-20T07:36:41.209Z,9.90
2017-10-20T07:39:10.408Z,9.87
2017-10-20T07:41:39.623Z,10.87
2017-10-20T07:44:08.875Z,9.87
2017-10-20T07:46:38.098Z,9.20
2017-10-20T07:49:07.295Z,10.20
2017-10-20T07:51:36.495Z,9.87
2017-10-20T07:54:05.747Z,9.30
2017-10-20T07:56:35.705Z,9.20
2017-10-20T07:59:04.924Z,10.93
2017-10-20T08:01:34.128Z,9.80
2017-10-20T08:04:03.339Z,9.10
2017-10-20T08:06:32.775Z,8.90
2017-10-20T08:09:02.000Z,9.00
2017-10-20T08:11:31.205Z,8.70
2017-10-20T08:14:00.419Z,8.47
2017-10-20T08:16:29.624Z,10.93
2017-10-20T08:19:00.760Z,8.70
2017-10-20T08:21:29.936Z,7.97
2017-10-20T08:23:59.127Z,8.43
2017-10-20T08:26:28.329Z,8.30
2017-10-20T08:28:57.544Z,7.97
2017-10-20T08:31:26.780Z,7.00
2017-10-20T08:33:57.254Z,7.00
2017-10-20T08:36:26.457Z,6.90
2017-10-20T08:38:55.695Z,6.90
2017-10-20T08:41:25.674Z,6.83
2017-10-20T08:43:54.879Z,6.97
2017-10-20T08:46:24.083Z,6.80
2017-10-20T08:48:53.335Z,7.00
2017-10-20T08:51:22.535Z,6.93
2017-10-20T08:53:51.739Z,6.13
2017-10-20T08:56:20.940Z,6.67
2017-10-20T08:58:50.137Z,6.13
2017-10-20T09:01:19.356Z,6.50
2017-10-20T09:03:48.552Z,6.90
2017-10-20T09:06:17.759Z,6.10
2017-10-20T09:08:47.044Z,8.10
2017-10-20T09:11:16.233Z,6.90
2017-10-20T09:13:45.478Z,6.20
2017-10-20T09:16:15.460Z,6.20
2017-10-20T09:18:44.650Z,8.10
2017-10-20T09:21:13.872Z,8.43
2017-10-20T09:23:43.145Z,7.13
2017-10-20T09:26:12.359Z,5.57
2017-10-20T09:28:41.552Z,6.43
2017-10-20T09:31:10.753Z,6.57
2017-10-20T09:33:40.153Z,6.13
2017-10-20T09:36:09.368Z,6.90
2017-10-20T09:38:39.390Z,6.03
2017-10-20T09:41:08.605Z,6.33
2017-10-20T09:43:37.788Z,6.40
2017-10-20T09:46:07.776Z,6.23
2017-10-20T09:48:36.975Z,5.03
2017-10-20T09:51:06.473Z,6.37
2017-10-20T09:53:35.673Z,6.57
2017-10-20T09:56:04.846Z,6.73
2017-10-20T09:58:34.060Z,5.70
2017-10-20T10:01:03.265Z,6.30
2017-10-20T10:03:32.468Z,7.67
2017-10-20T10:06:01.707Z,7.50
2017-10-20T10:08:30.895Z,6.47
2017-10-20T10:11:00.269Z,4.00
2017-10-20T10:13:29.470Z,3.87
2017-10-20T10:15:58.648Z,2.87
2017-10-20T10:18:27.866Z,2.83
2017-10-20T10:20:57.072Z,2.43
2017-10-20T10:23:26.266Z,2.87
2017-10-20T10:25:55.735Z,2.73
2017-10-20T10:28:24.941Z,3.13
2017-10-20T10:30:54.160Z,2.93
2017-10-20T10:33:24.135Z,3.33
2017-10-20T10:35:53.357Z,3.90
2017-10-20T10:38:24.059Z,4.73
2017-10-20T10:40:53.255Z,4.90
2017-10-20T10:43:22.451Z,4.30
2017-10-20T10:45:51.984Z,3.73
2017-10-20T10:48:22.699Z,4.10
2017-10-20T10:50:51.924Z,2.73
2017-10-20T10:53:21.118Z,2.80
2017-10-20T10:55:50.332Z,3.40
2017-10-20T10:58:19.543Z,2.67
2017-10-20T11:00:49.535Z,2.53
2017-10-20T11:03:19.011Z,2.50
2017-10-20T11:06:06.039Z,2.20
2017-10-20T11:08:52.989Z,2.00
2017-10-20T11:11:40.037Z,2.57
2017-10-20T11:14:09.248Z,2.30
2017-10-20T11:16:38.443Z,2.20
2017-10-20T11:19:07.646Z,2.27
2017-10-20T11:21:36.846Z,2.27
2017-10-20T11:24:07.045Z,2.20
2017-10-20T11:26:36.277Z,3.33
2017-10-20T11:29:05.696Z,2.57
2017-10-20T11:31:34.888Z,3.37
2017-10-20T11:34:04.167Z,3.17
2017-10-20T11:36:33.400Z,2.93
2017-10-20T11:39:03.379Z,3.20
2017-10-20T11:41:32.587Z,3.00
2017-10-20T11:44:01.892Z,3.27
2017-10-20T11:46:31.099Z,3.10
2017-10-20T11:49:00.294Z,2.73
2017-10-20T11:51:30.307Z,3.13
2017-10-20T11:53:59.499Z,2.97
2017-10-20T11:56:28.763Z,2.83
2017-10-20T11:58:57.960Z,2.63
2017-10-20T12:01:27.160Z,2.57
2017-10-20T12:03:56.413Z,2.53
2017-10-20T12:06:26.638Z,3.43
2017-10-20T12:08:58.086Z,2.73
2017-10-20T12:11:28.271Z,2.10
2017-10-20T12:13:57.483Z,2.07
2017-10-20T12:16:26.681Z,2.10
2017-10-20T12:18:55.903Z,1.90
2017-10-20T12:21:25.871Z,1.87
2017-10-20T12:23:55.099Z,1.80
2017-10-20T12:26:24.312Z,1.57
2017-10-20T12:28:54.492Z,2.10
2017-10-20T12:31:23.723Z,1.80
2017-10-20T12:33:53.266Z,1.57
2017-10-20T12:36:22.713Z,1.77
2017-10-20T12:38:51.935Z,1.70
2017-10-20T12:41:21.920Z,1.70
2017-10-20T12:43:51.171Z,2.23
2017-10-20T12:46:20.380Z,1.60
2017-10-20T12:48:49.595Z,1.60
2017-10-20T12:51:18.797Z,1.70
2017-10-20T12:53:48.031Z,1.40
2017-10-20T12:56:17.228Z,1.23
2017-10-20T12:58:47.187Z,0.90
2017-10-20T13:01:16.398Z,1.37
2017-10-20T13:03:45.676Z,1.50
2017-10-20T13:06:15.193Z,1.17
2017-10-20T13:08:44.485Z,1.20
2017-10-20T13:11:13.695Z,1.10
2017-10-20T13:13:42.929Z,1.63
2017-10-20T13:16:12.123Z,1.60
2017-10-20T13:18:41.341Z,1.43
2017-10-20T13:21:11.342Z,1.50
2017-10-20T13:23:42.290Z,1.10
2017-10-20T13:26:11.580Z,1.20
2017-10-20T13:28:40.795Z,1.60
2017-10-20T13:31:10.909Z,1.27
2017-10-20T13:33:40.888Z,1.13
2017-10-20T13:36:10.163Z,1.60
2017-10-20T13:38:39.368Z,1.67
2017-10-20T13:41:08.587Z,1.50
2017-10-20T13:43:37.787Z,1.23
2017-10-20T13:46:06.999Z,1.40
2017-10-20T13:48:36.984Z,1.30
2017-10-20T13:51:06.188Z,1.63
2017-10-20T13:53:35.419Z,0.97
2017-10-20T13:56:05.432Z,1.73
2017-10-20T13:58:35.383Z,1.37
2017-10-20T14:01:04.633Z,1.00
2017-10-20T14:03:33.828Z,1.07
2017-10-20T14:06:03.041Z,1.57
2017-10-20T14:08:33.015Z,1.10
2017-10-20T14:11:02.266Z,1.20
2017-10-20T14:13:32.468Z,1.20
2017-10-20T14:16:02.633Z,1.10
2017-10-20T14:18:31.833Z,1.23
2017-10-20T14:21:01.156Z,2.40
2017-10-20T14:23:31.134Z,1.40
2017-10-20T14:26:00.407Z,1.30
2017-10-20T14:28:30.403Z,1.73
2017-10-20T14:30:59.599Z,1.17
2017-10-20T14:33:28.822Z,1.27
2017-10-20T14:35:58.279Z,1.40
2017-10-20T14:38:27.478Z,1.20
2017-10-20T14:40:56.735Z,1.47
2017-10-20T14:43:26.699Z,1.50
2017-10-20T14:45:55.922Z,1.03
2017-10-20T14:48:25.110Z,1.53
2017-10-20T14:50:54.549Z,1.33
2017-10-20T14:53:23.758Z,1.53
2017-10-20T14:55:52.985Z,1.30
2017-10-20T14:58:22.208Z,0.90
2017-10-20T15:00:51.428Z,1.43
2017-10-20T15:03:21.416Z,1.30
2017-10-20T15:05:51.445Z,1.13
2017-10-20T15:08:20.652Z,1.10
2017-10-20T15:10:50.638Z,1.27
2017-10-20T15:13:19.840Z,1.20
2017-10-20T15:15:49.814Z,1.53
2017-10-20T15:18:19.053Z,1.30
2017-10-20T15:20:48.267Z,1.10
2017-10-20T15:23:18.299Z,1.60
2017-10-20T15:25:48.291Z,2.20
2017-10-20T15:28:17.496Z,1.50
2017-10-20T15:30:46.726Z,1.40
2017-10-20T15:33:15.935Z,1.53
2017-10-20T15:35:45.148Z,1.40
2017-10-20T15:38:14.391Z,1.90
2017-10-20T15:40:44.376Z,1.83
2017-10-20T15:43:13.635Z,1.53
2017-10-20T15:45:42.843Z,1.50
2017-10-20T15:48:12.040Z,1.53
2017-10-20T15:50:42.904Z,1.23
2017-10-20T15:53:12.143Z,1.27
2017-10-20T15:55:41.360Z,1.33
2017-10-20T15:58:10.607Z,2.00
2017-10-20T16:00:39.832Z,1.67
2017-10-20T16:03:09.399Z,1.97
2017-10-20T16:05:38.626Z,1.87
2017-10-20T16:08:08.611Z,1.57
2017-10-20T16:10:37.821Z,1.60
2017-10-20T16:13:07.052Z,2.20
2017-10-20T16:15:37.024Z,1.33
2017-10-20T16:18:06.231Z,1.90
2017-10-20T16:20:35.433Z,1.60
2017-10-20T16:23:04.659Z,1.90
2017-10-20T16:25:33.850Z,2.03
2017-10-20T16:28:03.064Z,1.93
2017-10-20T16:30:33.040Z,1.60
2017-10-20T16:33:02.346Z,2.13
2017-10-20T16:35:31.548Z,1.50
2017-10-20T16:38:00.769Z,1.80
2017-10-20T16:40:29.994Z,1.70
2017-10-20T16:42:59.225Z,1.40
2017-10-20T16:45:28.467Z,1.53
2017-10-20T16:47:57.657Z,1.30
2017-10-20T16:50:27.643Z,2.20
2017-10-20T16:52:56.848Z,1.20
2017-10-20T16:55:26.102Z,1.67
2017-10-20T16:57:55.299Z,1.53
2017-10-20T17:00:24.521Z,1.60
2017-10-20T17:02:53.724Z,1.60
2017-10-20T17:05:22.921Z,1.30
2017-10-20T17:07:52.139Z,1.20
2017-10-20T17:10:21.336Z,2.00
2017-10-20T17:12:51.305Z,2.83
2017-10-20T17:15:20.528Z,1.70
2017-10-20T17:17:49.754Z,1.87
2017-10-20T17:20:19.739Z,2.30
2017-10-20T17:22:48.948Z,2.80
2017-10-20T17:25:18.156Z,3.27
2017-10-20T17:27:47.428Z,1.87
2017-10-20T17:30:17.067Z,2.37
2017-10-20T17:32:47.060Z,1.80
2017-10-20T17:35:16.282Z,1.80
2017-10-20T17:37:46.244Z,1.40
2017-10-20T17:40:15.507Z,1.80
2017-10-20T17:42:44.733Z,1.67
2017-10-20T17:45:13.936Z,2.07
2017-10-20T17:47:43.143Z,2.37
2017-10-20T17:50:12.299Z,1.90
2017-10-20T17:52:41.527Z,2.30
2017-10-20T17:55:10.756Z,1.50
2017-10-20T17:57:39.980Z,1.93
2017-10-20T18:00:09.962Z,2.33
2017-10-20T18:02:39.179Z,1.70
2017-10-20T18:05:08.384Z,2.17
2017-10-20T18:07:38.488Z,1.80
2017-10-20T18:10:07.734Z,1.90
2017-10-20T18:12:36.925Z,2.20
2017-10-20T18:15:06.248Z,1.77
2017-10-20T18:17:35.481Z,2.00
2017-10-20T18:20:04.715Z,1.80
2017-10-20T18:22:34.768Z,1.80
2017-10-20T18:25:03.996Z,2.03
2017-10-20T18:27:33.247Z,3.30
2017-10-20T18:30:02.447Z,2.60
2017-10-20T18:32:31.659Z,3.70
2017-10-20T18:35:00.889Z,2.50
2017-10-20T18:37:30.085Z,2.30
2017-10-20T18:39:59.325Z,2.30
2017-10-20T18:42:28.547Z,3.00
2017-10-20T18:44:57.780Z,2.07
2017-10-20T18:47:27.006Z,2.40
2017-10-20T18:49:56.971Z,2.50
2017-10-20T18:52:26.187Z,2.27
2017-10-20T18:54:55.424Z,1.70
2017-10-20T18:57:24.654Z,2.43
2017-10-20T18:59:53.875Z,1.97
2017-10-20T19:02:23.155Z,1.87
2017-10-20T19:04:52.802Z,2.37
2017-10-20T19:07:22.771Z,2.37
2017-10-20T19:09:52.783Z,2.10
2017-10-20T19:12:22.015Z,2.13
2017-10-20T19:14:51.223Z,2.10
2017-10-20T19:17:21.241Z,2.37
2017-10-20T19:19:50.787Z,2.50
2017-10-20T19:22:20.884Z,2.47
2017-10-20T19:24:50.868Z,2.10
2017-10-20T19:27:20.431Z,4.53
2017-10-20T19:29:49.735Z,6.67
2017-10-20T19:32:18.936Z,3.90
2017-10-20T19:34:48.167Z,2.50
2017-10-20T19:37:17.391Z,1.87
2017-10-20T19:39:46.589Z,1.50
2017-10-20T19:42:16.579Z,2.33
2017-10-20T19:44:45.807Z,2.23
2017-10-20T19:47:15.837Z,3.17
2017-10-20T19:49:45.057Z,2.93
2017-10-20T19:52:14.399Z,2.57
2017-10-20T19:54:44.388Z,2.50
2017-10-20T19:57:13.586Z,3.07
2017-10-20T19:59:43.128Z,2.80
2017-10-20T20:02:13.095Z,2.07
2017-10-20T20:04:43.303Z,2.20
2017-10-20T20:07:12.713Z,2.77
2017-10-20T20:09:41.960Z,2.33
2017-10-20T20:12:11.964Z,4.37
2017-10-20T20:14:41.195Z,2.23
2017-10-20T20:17:11.186Z,2.70
2017-10-20T20:19:41.150Z,1.80
2017-10-20T20:22:10.376Z,2.40
2017-10-20T20:24:39.584Z,2.70
2017-10-20T20:27:08.784Z,2.10
2017-10-20T20:29:37.989Z,2.87
2017-10-20T20:32:09.911Z,2.07
2017-10-20T20:34:41.129Z,1.97
2017-10-20T20:37:11.301Z,2.00
2017-10-20T20:39:40.547Z,2.20
2017-10-20T20:42:09.768Z,2.30
2017-10-20T20:44:38.995Z,3.17
2017-10-20T20:47:08.183Z,2.60
2017-10-20T20:49:37.407Z,2.17
2017-10-20T20:52:06.640Z,2.27
2017-10-20T20:54:35.846Z,2.30
2017-10-20T20:57:05.074Z,2.10
2017-10-20T20:59:34.298Z,1.90
2017-10-20T21:02:04.280Z,2.53
2017-10-20T21:04:33.509Z,3.60
2017-10-20T21:07:02.728Z,2.30
2017-10-20T21:09:31.929Z,2.70
2017-10-20T21:12:03.006Z,2.40
2017-10-20T21:14:36.015Z,2.17
2017-10-20T21:17:05.632Z,2.30
2017-10-20T21:19:34.855Z,3.73
2017-10-20T21:22:04.887Z,3.20
2017-10-20T21:24:34.115Z,3.67
2017-10-20T21:27:03.324Z,3.43
2017-10-20T21:29:32.567Z,2.90
2017-10-20T21:32:01.772Z,2.40
2017-10-20T21:34:30.996Z,2.30
2017-10-20T21:37:00.189Z,3.10
2017-10-20T21:39:29.599Z,2.00
2017-10-20T21:41:59.060Z,2.50
2017-10-20T21:44:29.077Z,2.13
2017-10-20T21:46:59.048Z,2.40
2017-10-20T21:49:28.283Z,2.23
2017-10-20T21:51:58.360Z,1.80
2017-10-20T21:54:27.571Z,2.07
2017-10-20T21:56:56.829Z,2.43
2017-10-20T21:59:26.079Z,2.00
2017-10-20T22:01:55.309Z,2.10
2017-10-20T22:04:25.274Z,2.90
2017-10-20T22:06:54.984Z,2.53
2017-10-20T22:09:24.216Z,2.47
2017-10-20T22:11:54.288Z,2.67
2017-10-20T22:14:23.502Z,1.90
2017-10-20T22:16:52.714Z,2.17
2017-10-20T22:19:22.728Z,2.27
2017-10-20T22:21:51.932Z,2.50
2017-10-20T22:24:21.900Z,2.67
2017-10-20T22:26:51.116Z,2.03
2017-10-20T22:29:20.339Z,2.37
2017-10-20T22:31:49.559Z,2.43
2017-10-20T22:34:18.769Z,2.63
2017-10-20T22:36:47.987Z,2.90
2017-10-20T22:39:17.202Z,2.80
2017-10-20T22:41:46.404Z,2.70
2017-10-20T22:44:16.392Z,2.40
2017-10-20T22:46:45.610Z,2.27
2017-10-20T22:49:14.840Z,2.77
2017-10-20T22:51:44.828Z,2.77
2017-10-20T22:54:14.036Z,2.83
2017-10-20T22:56:43.243Z,2.60
2017-10-20T22:59:12.455Z,2.80
2017-10-20T23:01:42.449Z,3.63
2017-10-20T23:04:11.654Z,2.43
2017-10-20T23:06:40.971Z,3.10
2017-10-20T23:09:10.968Z,2.83
2017-10-20T23:11:40.946Z,2.47
2017-10-20T23:14:10.213Z,2.67
2017-10-20T23:16:39.426Z,2.87
2017-10-20T23:19:08.628Z,2.40
2017-10-20T23:21:37.880Z,3.20
2017-10-20T23:24:07.860Z,3.30
2017-10-20T23:26:37.072Z,3.07
2017-10-20T23:29:06.285Z,3.83
2017-10-20T23:31:35.503Z,2.63
2017-10-20T23:34:05.552Z,2.87
2017-10-20T23:36:34.780Z,2.07
2017-10-20T23:39:03.972Z,2.27
2017-10-20T23:41:33.221Z,2.50
2017-10-20T23:44:02.444Z,2.87
2017-10-20T23:46:31.932Z,2.63
2017-10-20T23:49:01.146Z,3.20
2017-10-20T23:51:30.339Z,3.80
2017-10-20T23:53:59.574Z,7.70
2017-10-20T23:56:29.054Z,6.90
2017-10-20T23:58:58.399Z,3.77
